»·PEaware :: N670MA KSAN-KPSP

N670MA :: KSAN-KPSP

FLIGHT INFORMATION

Flight Status: Arrived
Operator: Privately registered:
United States
More flights under this callsign
Pilot: Victor C. (32144)
Aircraft: PIPER PA-44 SEMINOLE
(PA44)
More flights by this aircraft type
Origin: KSAN San Diego Intl-Lindbergh
United States
Destination: KPSP Palm Springs Intl
United States
More flights between these airports :: More routes between these airports
Route:
File this flight plan on PilotEdge
Remarks:
Altitude:
(Current/Filed)
7,500ft
Speed:
(Current/Filed)
150kts
Departed: 15-Jan-21 11:32 AM
Arrived: 15-Jan-21 12:15 PM
Distance/Time
Traveled:
74nm/0:43
Distance/Time
To Go:
Arrived

Flight Plot

Page will automatically refresh every two minutes.


Map Options




Map Legend


Flown Route
Filed Route
Departure Airport
Arrival Airport
Navaid (VOR, NDB)
Fix

Horizontal Profiles

Position Reports

Time Latitude Longitude Heading Altitude Ground
Speed
15-Jan-21 10:42 32.733283 -117.177499 303 15ft 0kts
15-Jan-21 10:43 32.733283 -117.177499 303 15ft 0kts
15-Jan-21 10:44 32.733283 -117.177499 303 15ft 0kts
15-Jan-21 10:45 32.733283 -117.177499 303 15ft 0kts
15-Jan-21 10:46 32.733283 -117.177499 303 15ft 0kts
15-Jan-21 10:47 32.733283 -117.177499 303 15ft 0kts
15-Jan-21 10:47 32.733283 -117.177499 303 15ft 0kts
15-Jan-21 10:48 32.733283 -117.177499 303 15ft 0kts
15-Jan-21 10:50 32.733283 -117.177499 303 15ft 0kts
15-Jan-21 10:51 32.733283 -117.177499 303 15ft 0kts
15-Jan-21 10:51 32.733283 -117.177499 303 15ft 0kts
15-Jan-21 10:52 32.733283 -117.177499 303 15ft 0kts
15-Jan-21 10:53 32.733283 -117.177499 303 15ft 0kts
15-Jan-21 10:54 32.733283 -117.177499 303 15ft 0kts
15-Jan-21 10:55 32.733283 -117.177499 303 15ft 0kts
15-Jan-21 10:56 32.733283 -117.177499 303 15ft 0kts
15-Jan-21 10:57 32.733283 -117.177499 303 15ft 0kts
15-Jan-21 10:58 32.733283 -117.177499 303 15ft 0kts
15-Jan-21 10:59 32.733283 -117.177499 303 15ft 0kts
15-Jan-21 11:00 32.733283 -117.177499 303 15ft 0kts
15-Jan-21 11:01 32.733283 -117.177499 303 15ft 0kts
15-Jan-21 11:02 32.733283 -117.177499 303 15ft 0kts
15-Jan-21 11:03 32.733283 -117.177499 303 15ft 0kts
15-Jan-21 11:04 32.733283 -117.177499 303 15ft 0kts
15-Jan-21 11:05 32.733283 -117.177499 303 15ft 0kts
15-Jan-21 11:06 32.733283 -117.177499 303 15ft 0kts
15-Jan-21 11:07 32.733283 -117.177499 303 15ft 0kts
15-Jan-21 11:08 32.733285 -117.177504 300 15ft 0kts
15-Jan-21 11:09 32.733285 -117.177504 300 15ft 0kts
15-Jan-21 11:10 32.733285 -117.177504 300 15ft 0kts
15-Jan-21 11:11 32.733285 -117.177504 300 15ft 0kts
15-Jan-21 11:12 32.733285 -117.177504 300 15ft 0kts
15-Jan-21 11:13 32.733285 -117.177504 300 15ft 0kts
15-Jan-21 11:14 32.733285 -117.177504 300 15ft 0kts
15-Jan-21 11:15 32.733285 -117.177504 300 15ft 0kts
15-Jan-21 11:16 32.733285 -117.177504 300 15ft 0kts
15-Jan-21 11:17 32.733285 -117.177504 300 15ft 0kts
15-Jan-21 11:18 32.733285 -117.177504 300 15ft 0kts
15-Jan-21 11:19 32.733285 -117.177504 300 15ft 0kts
15-Jan-21 11:20 32.733285 -117.177504 300 15ft 0kts
15-Jan-21 11:21 32.733285 -117.177504 300 15ft 0kts
15-Jan-21 11:22 32.733285 -117.177504 300 15ft 0kts
15-Jan-21 11:23 32.733285 -117.177504 300 15ft 0kts
15-Jan-21 11:24 32.733220 -117.177712 194 15ft 3kts
15-Jan-21 11:25 32.732386 -117.176481 164 16ft 0kts
15-Jan-21 11:26 32.730934 -117.175474 142 14ft 0kts
15-Jan-21 11:27 32.730932 -117.175472 142 14ft 0kts
15-Jan-21 11:28 32.730932 -117.175472 142 14ft 0kts
15-Jan-21 11:29 32.730932 -117.175472 142 14ft 0kts
15-Jan-21 11:30 32.730932 -117.175472 142 14ft 0kts
15-Jan-21 11:31 32.730551 -117.177219 285 13ft 51kts
15-Jan-21 11:32 32.738798 -117.214607 257 1046ft 132kts
15-Jan-21 11:33 32.710673 -117.200571 125 1679ft 143kts
15-Jan-21 11:34 32.689571 -117.162259 122 2332ft 143kts
15-Jan-21 11:35 32.668104 -117.123753 121 2905ft 137kts
15-Jan-21 11:36 32.650975 -117.087487 61 3506ft 124kts
15-Jan-21 11:37 32.677785 -117.058349 42 4496ft 138kts
15-Jan-21 11:38 32.707430 -117.028953 42 5502ft 136kts
15-Jan-21 11:39 32.735802 -117.001101 35 6499ft 129kts
15-Jan-21 11:40 32.770389 -116.992704 12 7470ft 123kts
15-Jan-21 11:41 32.805012 -116.986656 12 8392ft 135kts
15-Jan-21 11:42 32.844541 -116.979628 12 7679ft 144kts
15-Jan-21 11:43 32.880860 -116.973398 11 7466ft 127kts
15-Jan-21 11:44 32.916494 -116.967404 12 7463ft 134kts
15-Jan-21 11:45 32.953551 -116.961034 12 7495ft 135kts
15-Jan-21 11:46 32.990810 -116.954515 11 7428ft 134kts
15-Jan-21 11:47 33.024448 -116.936674 31 7463ft 133kts
15-Jan-21 11:48 33.056589 -116.915014 32 7446ft 132kts
15-Jan-21 11:49 33.088522 -116.891969 32 7466ft 135kts
15-Jan-21 11:50 33.120282 -116.867781 32 7450ft 135kts
15-Jan-21 11:51 33.151889 -116.843536 32 7451ft 135kts
15-Jan-21 11:52 33.183398 -116.819348 32 7406ft 134kts
15-Jan-21 11:53 33.215169 -116.794915 32 7342ft 133kts
15-Jan-21 11:54 33.247973 -116.776478 23 7638ft 128kts
15-Jan-21 11:55 33.282401 -116.759710 22 7608ft 136kts
15-Jan-21 11:56 33.317538 -116.742735 21 7523ft 135kts
15-Jan-21 11:57 33.352436 -116.725944 23 7552ft 134kts
15-Jan-21 11:58 33.387349 -116.708810 22 7454ft 139kts
15-Jan-21 11:59 33.424993 -116.690483 22 6506ft 148kts
15-Jan-21 12:00 33.461187 -116.672955 22 6249ft 128kts
15-Jan-21 12:01 33.493863 -116.657097 22 6557ft 127kts
15-Jan-21 12:02 33.527611 -116.640808 22 6746ft 130kts
15-Jan-21 12:03 33.559858 -116.622352 40 7725ft 130kts
15-Jan-21 12:04 33.589226 -116.589716 46 7601ft 155kts
15-Jan-21 12:05 33.613509 -116.551719 52 6958ft 128kts
15-Jan-21 12:06 33.637958 -116.521283 33 6360ft 128kts
15-Jan-21 12:07 33.667697 -116.496410 41 5751ft 133kts
15-Jan-21 12:08 33.696455 -116.467014 42 5108ft 137kts
15-Jan-21 12:09 33.725913 -116.434897 30 4206ft 143kts
15-Jan-21 12:10 33.762420 -116.432194 19 3329ft 137kts
15-Jan-21 12:11 33.785934 -116.451661 284 2434ft 124kts
15-Jan-21 12:12 33.795031 -116.477111 323 1124ft 85kts
15-Jan-21 12:13 33.815630 -116.495128 317 674ft 83kts
15-Jan-21 12:15 33.827812 -116.505982 323 432ft 27kts
15-Jan-21 12:16 33.828750 -116.508229 253 436ft 0kts
15-Jan-21 12:17 33.828494 -116.508498 186 437ft 9kts
15-Jan-21 12:18 33.825939 -116.507051 235 430ft 1kts
15-Jan-21 12:19 33.825485 -116.509220 306 431ft 7kts
15-Jan-21 12:20 33.826540 -116.509614 0 434ft 0kts

Navigation Log

Ident Type
Flight plan parsing failed, navigation log unavailable